createdAt,value
2023-02-26T00:00:25.256Z,101087.56
2023-02-26T00:02:53.090Z,101094.59
2023-02-26T00:05:20.915Z,101099.66
2023-02-26T00:07:48.660Z,101091.47
2023-02-26T00:10:17.817Z,101092.94
2023-02-26T00:12:46.588Z,101101.28
2023-02-26T00:15:17.739Z,101096.56
2023-02-26T00:17:53.022Z,101100.16
2023-02-26T00:20:21.021Z,101098.72
2023-02-26T00:22:49.337Z,101104.66
2023-02-26T00:25:18.547Z,101099.63
2023-02-26T00:27:46.813Z,101099.78
2023-02-26T00:30:15.032Z,101100.69
2023-02-26T00:32:43.696Z,101098.72
2023-02-26T00:35:15.791Z,101099.44
2023-02-26T00:37:59.035Z,101101.44
2023-02-26T00:40:35.978Z,101112.03
2023-02-26T00:43:04.887Z,101113.72
2023-02-26T00:45:35.539Z,101112.28
2023-02-26T00:48:33.442Z,101116.47
2023-02-26T00:51:13.338Z,101110.97
2023-02-26T00:53:48.028Z,101109.50
2023-02-26T00:56:17.136Z,101109.41
2023-02-26T00:58:44.811Z,101120.25
2023-02-26T01:01:12.600Z,101125.44
2023-02-26T01:03:40.857Z,101128.13
2023-02-26T01:06:12.666Z,101129.06
2023-02-26T01:08:47.804Z,101132.53
2023-02-26T01:11:17.437Z,101133.59
2023-02-26T01:13:45.636Z,101140.09
2023-02-26T01:16:18.895Z,101140.84
2023-02-26T01:18:51.437Z,101149.47
2023-02-26T01:21:27.934Z,101156.03
2023-02-26T01:23:55.775Z,101154.72
2023-02-26T01:26:28.392Z,101160.41
2023-02-26T01:28:57.209Z,101162.38
2023-02-26T01:31:36.260Z,101163.53
2023-02-26T01:34:11.023Z,101158.59
2023-02-26T01:36:44.968Z,101161.06
2023-02-26T01:39:21.713Z,101169.19
2023-02-26T01:41:53.204Z,101159.84
2023-02-26T01:44:27.627Z,101165.03
2023-02-26T01:47:07.459Z,101165.97
2023-02-26T01:49:35.685Z,101169.44
2023-02-26T01:52:05.292Z,101164.16
2023-02-26T01:54:35.767Z,101172.28
2023-02-26T01:57:08.767Z,101170.28
2023-02-26T01:59:40.670Z,101165.00
2023-02-26T02:02:11.045Z,101161.41
2023-02-26T02:04:39.424Z,101173.03
2023-02-26T02:07:08.183Z,101184.19
2023-02-26T02:09:36.017Z,101171.91
2023-02-26T02:12:14.516Z,101179.81
2023-02-26T02:14:54.939Z,101175.94
2023-02-26T02:17:30.796Z,101178.25
2023-02-26T02:20:27.554Z,101183.00
2023-02-26T02:23:18.632Z,101181.47
2023-02-26T02:26:15.454Z,101188.75
2023-02-26T02:29:03.804Z,101193.56
2023-02-26T02:31:35.998Z,101184.84
2023-02-26T02:34:10.106Z,101178.31
2023-02-26T02:36:46.059Z,101187.50
2023-02-26T02:39:19.513Z,101183.25
2023-02-26T02:41:51.196Z,101179.44
2023-02-26T02:44:22.763Z,101190.25
2023-02-26T02:46:54.805Z,101191.88
2023-02-26T02:49:27.954Z,101198.19
2023-02-26T02:52:00.288Z,101200.69
2023-02-26T02:54:32.452Z,101197.44
2023-02-26T02:57:05.529Z,101200.09
2023-02-26T02:59:37.283Z,101202.63
2023-02-26T03:02:17.697Z,101196.13
2023-02-26T03:04:46.257Z,101192.72
2023-02-26T03:07:14.076Z,101186.56
2023-02-26T03:09:42.193Z,101191.59
2023-02-26T03:12:09.923Z,101200.78
2023-02-26T03:14:38.220Z,101197.38
2023-02-26T03:17:24.260Z,101195.50
2023-02-26T03:20:07.376Z,101201.84
2023-02-26T03:22:42.188Z,101197.44
2023-02-26T03:25:15.446Z,101193.22
2023-02-26T03:27:50.527Z,101206.47
2023-02-26T03:30:23.642Z,101207.38
2023-02-26T03:33:01.855Z,101213.47
2023-02-26T03:35:37.030Z,101210.34
2023-02-26T03:38:10.657Z,101213.47
2023-02-26T03:40:44.584Z,101222.22
2023-02-26T03:43:18.384Z,101220.78
2023-02-26T03:45:50.540Z,101224.06
2023-02-26T03:48:25.854Z,101225.81
2023-02-26T03:50:56.853Z,101231.53
2023-02-26T03:53:28.181Z,101227.94
2023-02-26T03:56:01.377Z,101237.56
2023-02-26T03:58:29.354Z,101233.34
2023-02-26T04:01:02.572Z,101238.66
2023-02-26T04:03:37.603Z,101240.28
2023-02-26T04:06:06.283Z,101233.19
2023-02-26T04:08:34.134Z,101236.66
2023-02-26T04:11:07.849Z,101239.94
2023-02-26T04:13:36.210Z,101245.44
2023-02-26T04:16:04.867Z,101242.16
2023-02-26T04:18:34.017Z,101249.88
2023-02-26T04:21:01.997Z,101252.63
2023-02-26T04:23:29.903Z,101247.13
2023-02-26T04:25:57.631Z,101253.50
2023-02-26T04:28:25.443Z,101256.19
2023-02-26T04:30:53.204Z,101257.88
2023-02-26T04:33:20.999Z,101260.41
2023-02-26T04:35:50.104Z,101261.38
2023-02-26T04:38:17.834Z,101268.50
2023-02-26T04:40:45.916Z,101273.47
2023-02-26T04:43:13.663Z,101272.56
2023-02-26T04:45:41.364Z,101264.56
2023-02-26T04:48:09.122Z,101268.94
2023-02-26T04:50:36.826Z,101281.50
2023-02-26T04:53:06.144Z,101285.75
2023-02-26T04:55:35.045Z,101289.31
2023-02-26T04:58:02.914Z,101290.22
2023-02-26T05:00:30.772Z,101297.16
2023-02-26T05:02:58.490Z,101302.53
2023-02-26T05:05:26.422Z,101294.72
2023-02-26T05:07:56.744Z,101297.41
2023-02-26T05:10:26.304Z,101297.56
2023-02-26T05:12:54.108Z,101302.88
2023-02-26T05:15:21.812Z,101301.06
2023-02-26T05:17:49.568Z,101302.88
2023-02-26T05:20:17.627Z,101302.09
2023-02-26T05:22:45.346Z,101296.03
2023-02-26T05:25:13.568Z,101299.34
2023-02-26T05:27:43.747Z,101303.91
2023-02-26T05:30:14.649Z,101307.38
2023-02-26T05:32:42.405Z,101313.47
2023-02-26T05:35:10.796Z,101317.00
2023-02-26T05:37:38.920Z,101309.06
2023-02-26T05:40:10.475Z,101323.94
2023-02-26T05:42:38.364Z,101320.47
2023-02-26T05:45:08.965Z,101323.06
2023-02-26T05:47:37.350Z,101333.59
2023-02-26T05:50:06.400Z,101334.47
2023-02-26T05:52:34.293Z,101333.53
2023-02-26T05:55:02.141Z,101339.84
2023-02-26T05:57:29.971Z,101343.34
2023-02-26T05:59:57.725Z,101346.84
2023-02-26T06:02:27.039Z,101354.69
2023-02-26T06:04:54.748Z,101350.28
2023-02-26T06:07:22.501Z,101359.94
2023-02-26T06:09:50.391Z,101366.06
2023-02-26T06:12:18.152Z,101370.41
2023-02-26T06:14:45.849Z,101363.44
2023-02-26T06:17:13.615Z,101372.25
2023-02-26T06:19:42.737Z,101375.72
2023-02-26T06:22:10.452Z,101377.47
2023-02-26T06:24:38.201Z,101375.72
2023-02-26T06:27:05.927Z,101388.00
2023-02-26T06:29:34.437Z,101395.97
2023-02-26T06:32:02.262Z,101392.41
2023-02-26T06:34:30.023Z,101403.88
2023-02-26T06:36:59.280Z,101394.25
2023-02-26T06:39:27.082Z,101404.78
2023-02-26T06:41:54.875Z,101402.13
2023-02-26T06:44:22.759Z,101410.91
2023-02-26T06:46:50.498Z,101414.47
2023-02-26T06:49:18.560Z,101411.75
2023-02-26T06:51:46.316Z,101422.34
2023-02-26T06:54:15.429Z,101431.97
2023-02-26T06:56:43.196Z,101443.38
2023-02-26T06:59:10.943Z,101443.38
2023-02-26T07:01:39.177Z,101441.59
2023-02-26T07:04:06.927Z,101452.13
2023-02-26T07:06:34.654Z,101462.69
2023-02-26T07:09:02.495Z,101463.56
2023-02-26T07:11:31.685Z,101464.41
2023-02-26T07:13:59.435Z,101465.28
2023-02-26T07:16:27.566Z,101468.84
2023-02-26T07:18:55.505Z,101479.41
2023-02-26T07:21:23.219Z,101480.25
2023-02-26T07:23:50.922Z,101488.09
2023-02-26T07:26:18.732Z,101493.41
2023-02-26T07:28:47.821Z,101490.69
2023-02-26T07:31:16.608Z,101488.94
2023-02-26T07:33:44.481Z,101499.47
2023-02-26T07:36:12.208Z,101508.22
2023-02-26T07:38:39.999Z,101509.06
2023-02-26T07:41:07.823Z,101511.72
2023-02-26T07:43:35.848Z,101516.16
2023-02-26T07:46:05.855Z,101510.78
2023-02-26T07:48:33.636Z,101516.09
2023-02-26T07:51:01.474Z,101523.09
2023-02-26T07:53:29.249Z,101524.03
2023-02-26T07:55:57.115Z,101531.00
2023-02-26T07:58:24.854Z,101535.34
2023-02-26T08:00:53.368Z,101539.72
2023-02-26T08:03:22.558Z,101542.31
2023-02-26T08:05:50.281Z,101537.78
2023-02-26T08:08:20.943Z,101543.88
2023-02-26T08:10:48.676Z,101534.16
2023-02-26T08:13:16.383Z,101539.66
2023-02-26T08:15:44.924Z,101528.81
2023-02-26T08:18:13.376Z,101532.44
2023-02-26T08:20:42.496Z,101544.66
2023-02-26T08:23:10.225Z,101537.63
2023-02-26T08:25:38.059Z,101546.31
2023-02-26T08:28:06.267Z,101544.56
2023-02-26T08:30:34.015Z,101557.19
2023-02-26T08:33:01.804Z,101551.59
2023-02-26T08:35:29.563Z,101561.28
2023-02-26T08:37:58.767Z,101564.75
2023-02-26T08:40:26.571Z,101558.59
2023-02-26T08:42:54.301Z,101554.19
2023-02-26T08:45:21.989Z,101560.38
2023-02-26T08:47:56.597Z,101569.94
2023-02-26T08:50:25.004Z,101570.41
2023-02-26T08:52:52.840Z,101568.88
2023-02-26T08:55:22.063Z,101574.91
2023-02-26T08:57:49.828Z,101579.22
2023-02-26T09:00:18.597Z,101580.00
2023-02-26T09:02:47.409Z,101572.94
2023-02-26T09:05:15.870Z,101570.75
2023-02-26T09:07:44.577Z,101580.53
2023-02-26T09:10:13.840Z,101580.41
2023-02-26T09:12:42.952Z,101579.47
2023-02-26T09:15:12.448Z,101591.31
2023-02-26T09:17:40.368Z,101592.19
2023-02-26T09:20:09.981Z,101600.75
2023-02-26T09:22:38.339Z,101597.84
2023-02-26T09:25:07.449Z,101588.84
2023-02-26T09:27:36.393Z,101598.44
2023-02-26T09:30:06.792Z,101602.69
2023-02-26T09:32:34.750Z,101608.59
2023-02-26T09:35:02.798Z,101611.13
2023-02-26T09:37:30.554Z,101607.41
2023-02-26T09:39:58.307Z,101611.81
2023-02-26T09:42:39.482Z,101622.88
2023-02-26T09:45:15.387Z,101623.75
2023-02-26T09:47:47.768Z,101622.56
2023-02-26T09:50:20.424Z,101624.19
2023-02-26T09:52:53.391Z,101619.03
2023-02-26T09:55:29.373Z,101614.53
2023-02-26T09:58:01.319Z,101614.88
2023-02-26T10:00:36.603Z,101603.75
2023-02-26T10:03:18.371Z,101606.81
2023-02-26T10:06:06.985Z,101611.00
2023-02-26T10:08:41.652Z,101601.66
2023-02-26T10:11:14.992Z,101605.13
2023-02-26T10:13:57.104Z,101603.63
2023-02-26T10:16:31.617Z,101612.06
2023-02-26T10:19:05.864Z,101616.63
2023-02-26T10:21:39.621Z,101615.13
2023-02-26T10:24:13.790Z,101625.75
2023-02-26T10:26:44.688Z,101625.66
2023-02-26T10:29:23.130Z,101625.25
2023-02-26T10:32:07.158Z,101629.94
2023-02-26T10:34:37.282Z,101632.16
2023-02-26T10:37:15.032Z,101642.41
2023-02-26T10:39:48.595Z,101624.56
2023-02-26T10:42:18.936Z,101631.22
2023-02-26T10:44:56.423Z,101624.63
2023-02-26T10:47:36.682Z,101632.91
2023-02-26T10:50:07.088Z,101637.22
2023-02-26T10:52:37.080Z,101630.78
2023-02-26T10:55:29.976Z,101650.31
2023-02-26T10:58:06.657Z,101651.50
2023-02-26T11:00:36.279Z,101655.81
2023-02-26T11:03:07.492Z,101665.63
2023-02-26T11:05:35.739Z,101664.66
2023-02-26T11:08:10.430Z,101666.09
2023-02-26T11:10:45.971Z,101665.47
2023-02-26T11:13:13.897Z,101660.03
2023-02-26T11:15:42.121Z,101651.25
2023-02-26T11:18:17.782Z,101662.41
2023-02-26T11:20:47.924Z,101663.53
2023-02-26T11:23:19.870Z,101664.53
2023-02-26T11:25:48.128Z,101664.56
2023-02-26T11:28:23.437Z,101670.91
2023-02-26T11:30:54.237Z,101670.34
2023-02-26T11:33:28.953Z,101669.09
2023-02-26T11:36:01.382Z,101670.09
2023-02-26T11:38:30.079Z,101662.78
2023-02-26T11:40:59.434Z,101659.56
2023-02-26T11:43:34.666Z,101655.84
2023-02-26T11:46:05.902Z,101670.13
2023-02-26T11:48:41.673Z,101663.22
2023-02-26T11:51:16.300Z,101670.47
2023-02-26T11:53:54.204Z,101676.22
2023-02-26T11:56:27.348Z,101654.72
2023-02-26T11:58:56.430Z,101657.50
2023-02-26T12:01:29.362Z,101658.53
2023-02-26T12:04:03.401Z,101637.84
2023-02-26T12:06:31.360Z,101637.28
2023-02-26T12:09:00.128Z,101640.00
2023-02-26T12:11:44.265Z,101635.97
2023-02-26T12:14:32.525Z,101623.00
2023-02-26T12:17:12.971Z,101638.22
2023-02-26T12:19:51.760Z,101634.78
2023-02-26T12:22:37.339Z,101613.63
2023-02-26T12:25:31.238Z,101619.31
2023-02-26T12:28:24.612Z,101614.94
2023-02-26T12:31:07.926Z,101619.03
2023-02-26T12:33:45.950Z,101606.03
2023-02-26T12:36:28.289Z,101610.13
2023-02-26T12:39:13.350Z,101610.19
2023-02-26T12:41:50.858Z,101604.81
2023-02-26T12:44:30.416Z,101616.59
2023-02-26T12:47:18.576Z,101607.06
2023-02-26T12:50:03.429Z,101599.44
2023-02-26T12:53:10.673Z,101613.53
2023-02-26T12:55:46.440Z,101611.47
2023-02-26T12:58:31.859Z,101607.50
2023-02-26T13:01:14.681Z,101599.66
2023-02-26T13:04:26.467Z,101609.97
2023-02-26T13:07:10.265Z,101598.56
2023-02-26T13:09:44.638Z,101627.75
2023-02-26T13:12:26.039Z,101608.53
2023-02-26T13:15:04.054Z,101612.66
2023-02-26T13:17:41.244Z,101612.50
2023-02-26T13:20:16.575Z,101620.13
2023-02-26T13:22:48.595Z,101622.50
2023-02-26T13:25:24.746Z,101630.47
2023-02-26T13:27:55.883Z,101642.00
2023-02-26T13:30:29.527Z,101620.44
2023-02-26T13:32:59.302Z,101620.34
2023-02-26T13:35:31.677Z,101617.00
2023-02-26T13:38:02.799Z,101630.72
2023-02-26T13:40:49.000Z,101618.38
2023-02-26T13:43:38.004Z,101629.94
2023-02-26T13:46:22.059Z,101614.81
2023-02-26T13:48:57.558Z,101628.28
2023-02-26T13:51:32.677Z,101624.72
2023-02-26T13:54:04.401Z,101617.13
2023-02-26T13:56:56.818Z,101624.50
2023-02-26T13:59:54.858Z,101623.28
2023-02-26T14:02:46.664Z,101624.34
2023-02-26T14:06:01.191Z,101625.47
2023-02-26T14:08:43.199Z,101634.28
2023-02-26T14:11:41.315Z,101632.47
2023-02-26T14:14:18.424Z,101614.03
2023-02-26T14:16:50.723Z,101637.59
2023-02-26T14:19:25.259Z,101624.44
2023-02-26T14:21:57.624Z,101624.59
2023-02-26T14:24:36.516Z,101627.19
2023-02-26T14:27:32.457Z,101624.25
2023-02-26T14:30:18.157Z,101630.91
2023-02-26T14:32:50.855Z,101645.50
2023-02-26T14:35:21.950Z,101634.75
2023-02-26T14:37:58.958Z,101622.75
2023-02-26T14:40:30.622Z,101634.75
2023-02-26T14:43:01.506Z,101627.56
2023-02-26T14:45:33.199Z,101640.28
2023-02-26T14:48:03.022Z,101642.72
2023-02-26T14:50:44.327Z,101643.53
2023-02-26T14:53:32.607Z,101650.41
2023-02-26T14:56:10.052Z,101645.47
2023-02-26T14:58:51.444Z,101648.13
2023-02-26T15:01:46.522Z,101652.91
2023-02-26T15:04:47.673Z,101654.16
2023-02-26T15:07:44.532Z,101651.97
2023-02-26T15:10:25.922Z,101660.44
2023-02-26T15:13:16.453Z,101655.09
2023-02-26T15:15:54.059Z,101649.41
2023-02-26T15:18:40.337Z,101655.78
2023-02-26T15:21:18.944Z,101667.13
2023-02-26T15:23:50.195Z,101670.06
2023-02-26T15:26:23.159Z,101664.41
2023-02-26T15:28:52.443Z,101656.66
2023-02-26T15:31:21.964Z,101659.00
2023-02-26T15:33:51.797Z,101669.84
2023-02-26T15:36:24.282Z,101662.72
2023-02-26T15:38:57.008Z,101661.44
2023-02-26T15:41:27.261Z,101664.97
2023-02-26T15:43:58.317Z,101673.34
2023-02-26T15:46:31.559Z,101672.31
2023-02-26T15:49:06.505Z,101670.09
2023-02-26T15:51:34.840Z,101677.31
2023-02-26T15:54:04.775Z,101674.28
2023-02-26T15:56:36.897Z,101683.59
2023-02-26T15:59:08.781Z,101685.81
2023-02-26T16:01:37.208Z,101690.16
2023-02-26T16:04:13.310Z,101688.13
2023-02-26T16:06:43.024Z,101689.38
2023-02-26T16:09:17.968Z,101691.06
2023-02-26T16:11:47.592Z,101694.78
2023-02-26T16:14:22.473Z,101698.53
2023-02-26T16:16:52.542Z,101697.56
2023-02-26T16:19:26.444Z,101697.69
2023-02-26T16:21:56.374Z,101700.00
2023-02-26T16:24:24.674Z,101704.91
2023-02-26T16:26:58.265Z,101692.88
2023-02-26T16:29:27.973Z,101709.16
2023-02-26T16:31:57.818Z,101701.63
2023-02-26T16:34:36.208Z,101704.56
2023-02-26T16:37:25.132Z,101710.16
2023-02-26T16:39:56.411Z,101711.66
2023-02-26T16:42:34.803Z,101702.47
2023-02-26T16:45:16.798Z,101705.22
2023-02-26T16:47:46.835Z,101701.69
2023-02-26T16:50:19.391Z,101704.97
2023-02-26T16:52:54.446Z,101705.78
2023-02-26T16:55:22.271Z,101717.03
2023-02-26T16:57:50.696Z,101719.34
2023-02-26T17:00:30.831Z,101715.91
2023-02-26T17:03:03.791Z,101714.97
2023-02-26T17:05:36.619Z,101725.13
2023-02-26T17:08:09.491Z,101716.44
2023-02-26T17:10:45.067Z,101733.97
2023-02-26T17:13:16.628Z,101725.19
2023-02-26T17:15:46.412Z,101728.25
2023-02-26T17:18:14.578Z,101734.63
2023-02-26T17:20:43.914Z,101734.69
2023-02-26T17:23:15.276Z,101737.06
2023-02-26T17:25:47.164Z,101748.81
2023-02-26T17:28:21.872Z,101754.06
2023-02-26T17:30:50.053Z,101757.03
2023-02-26T17:33:17.831Z,101752.47
2023-02-26T17:35:47.248Z,101755.06
2023-02-26T17:38:16.585Z,101761.53
2023-02-26T17:40:47.531Z,101766.38
2023-02-26T17:43:15.495Z,101761.78
2023-02-26T17:45:43.457Z,101763.56
2023-02-26T17:48:14.303Z,101774.94
2023-02-26T17:50:48.074Z,101782.19
2023-02-26T17:53:16.159Z,101796.72
2023-02-26T17:55:44.080Z,101791.97
2023-02-26T17:58:16.690Z,101799.00
2023-02-26T18:00:46.016Z,101797.47
2023-02-26T18:03:14.012Z,101805.25
2023-02-26T18:05:41.874Z,101813.38
2023-02-26T18:08:21.864Z,101816.91
2023-02-26T18:10:49.921Z,101825.00
2023-02-26T18:13:17.984Z,101819.97
2023-02-26T18:15:45.885Z,101817.22
2023-02-26T18:18:15.173Z,101822.19
2023-02-26T18:20:43.989Z,101828.69
2023-02-26T18:23:13.881Z,101825.22
2023-02-26T18:25:42.802Z,101842.13
2023-02-26T18:28:15.464Z,101828.03
2023-02-26T18:30:44.305Z,101832.31
2023-02-26T18:33:12.216Z,101833.03
2023-02-26T18:35:45.878Z,101825.34
2023-02-26T18:38:15.611Z,101833.13
2023-02-26T18:40:44.223Z,101831.38
2023-02-26T18:43:12.678Z,101837.72
2023-02-26T18:45:40.517Z,101832.25
2023-02-26T18:48:09.212Z,101839.25
2023-02-26T18:50:37.187Z,101836.88
2023-02-26T18:53:05.346Z,101838.47
2023-02-26T18:55:36.420Z,101835.19
2023-02-26T18:58:05.914Z,101838.63
2023-02-26T19:00:33.836Z,101833.47
2023-02-26T19:03:01.696Z,101837.91
2023-02-26T19:05:29.569Z,101835.22
2023-02-26T19:07:57.333Z,101836.16
2023-02-26T19:10:25.046Z,101845.88
2023-02-26T19:12:54.223Z,101845.00
2023-02-26T19:15:22.550Z,101844.16
2023-02-26T19:17:50.252Z,101849.47
2023-02-26T19:20:18.747Z,101860.94
2023-02-26T19:22:47.095Z,101856.56
2023-02-26T19:25:15.149Z,101856.50
2023-02-26T19:27:42.976Z,101866.16
2023-02-26T19:30:13.164Z,101861.00
2023-02-26T19:32:40.961Z,101867.00
2023-02-26T19:35:09.548Z,101865.28
2023-02-26T19:37:37.495Z,101871.50
2023-02-26T19:40:09.945Z,101878.72
2023-02-26T19:42:38.034Z,101879.63
2023-02-26T19:45:06.874Z,101878.69
2023-02-26T19:47:36.005Z,101870.69
2023-02-26T19:50:03.913Z,101879.56
2023-02-26T19:52:31.800Z,101880.47
2023-02-26T19:54:59.671Z,101886.59
2023-02-26T19:57:28.554Z,101886.59
2023-02-26T19:59:56.378Z,101893.56
2023-02-26T20:02:24.299Z,101897.06
2023-02-26T20:04:53.527Z,101904.25
2023-02-26T20:07:21.649Z,101903.34
2023-02-26T20:09:49.884Z,101912.91
2023-02-26T20:12:17.687Z,101921.88
2023-02-26T20:14:45.431Z,101921.78
2023-02-26T20:17:13.231Z,101934.00
2023-02-26T20:19:42.312Z,101925.44
2023-02-26T20:22:12.204Z,101923.59
2023-02-26T20:24:41.333Z,101943.03
2023-02-26T20:27:09.533Z,101937.72
2023-02-26T20:29:37.504Z,101935.91
2023-02-26T20:32:05.996Z,101940.34
2023-02-26T20:34:33.963Z,101961.50
2023-02-26T20:37:01.821Z,101958.84
2023-02-26T20:39:31.179Z,101964.94
2023-02-26T20:41:59.520Z,101964.16
2023-02-26T20:44:27.649Z,101970.31
2023-02-26T20:46:55.981Z,101964.19
2023-02-26T20:49:25.015Z,101965.06
2023-02-26T20:51:54.669Z,101968.59
2023-02-26T20:54:22.990Z,101961.53
2023-02-26T20:56:53.313Z,101970.34
2023-02-26T20:59:22.657Z,101965.09
2023-02-26T21:01:53.893Z,101977.38
2023-02-26T21:04:22.770Z,101971.22
2023-02-26T21:06:53.305Z,101975.66
2023-02-26T21:09:22.299Z,101969.47
2023-02-26T21:11:52.989Z,101974.72
2023-02-26T21:14:24.780Z,101976.50
2023-02-26T21:16:54.884Z,101986.19
2023-02-26T21:19:23.784Z,101978.25
2023-02-26T21:21:51.929Z,101987.94
2023-02-26T21:24:19.724Z,101989.72
2023-02-26T21:26:47.786Z,101994.13
2023-02-26T21:29:15.841Z,101987.06
2023-02-26T21:31:45.109Z,101989.66
2023-02-26T21:34:32.722Z,101995.00
2023-02-26T21:37:01.219Z,101996.72
2023-02-26T21:39:31.104Z,101999.38
2023-02-26T21:42:03.506Z,101999.34
2023-02-26T21:44:33.200Z,102004.66
2023-02-26T21:47:03.275Z,102009.00
2023-02-26T21:49:32.495Z,102014.34
2023-02-26T21:52:01.007Z,102012.53
2023-02-26T21:54:29.414Z,102009.91
2023-02-26T21:56:57.567Z,102010.81
2023-02-26T21:59:25.316Z,102026.59
2023-02-26T22:01:54.104Z,102023.97
2023-02-26T22:04:23.265Z,102016.09
2023-02-26T22:06:51.289Z,102025.78
2023-02-26T22:09:19.997Z,102029.25
2023-02-26T22:11:48.082Z,102024.81
2023-02-26T22:14:16.114Z,102027.50
2023-02-26T22:16:43.913Z,102025.75
2023-02-26T22:19:11.807Z,102023.09
2023-02-26T22:21:40.914Z,102028.38
2023-02-26T22:24:09.685Z,102023.97
2023-02-26T22:26:37.466Z,102031.88
2023-02-26T22:29:05.462Z,102023.97
2023-02-26T22:31:33.657Z,102024.84
2023-02-26T22:34:01.431Z,102026.59
2023-02-26T22:36:31.428Z,102021.34
2023-02-26T22:39:00.639Z,102019.59
2023-02-26T22:41:28.396Z,102026.56
2023-02-26T22:43:56.231Z,102023.91
2023-02-26T22:46:25.335Z,102020.47
2023-02-26T22:48:53.744Z,102029.22
2023-02-26T22:51:21.565Z,102017.78
2023-02-26T22:53:49.432Z,102010.78
2023-02-26T22:56:18.574Z,102009.88
2023-02-26T22:58:46.410Z,102012.56
2023-02-26T23:01:14.217Z,102009.88
2023-02-26T23:03:41.931Z,102011.66
2023-02-26T23:06:09.981Z,102016.91
2023-02-26T23:08:37.719Z,102015.94
2023-02-26T23:11:06.788Z,102015.06
2023-02-26T23:13:36.989Z,102008.94
2023-02-26T23:16:08.326Z,102014.25
2023-02-26T23:18:36.518Z,102016.78
2023-02-26T23:21:05.259Z,102015.94
2023-02-26T23:23:33.553Z,102017.66
2023-02-26T23:26:01.493Z,102008.06
2023-02-26T23:28:29.201Z,102014.97
2023-02-26T23:30:58.422Z,102022.78
2023-02-26T23:33:26.523Z,102021.13
2023-02-26T23:35:54.310Z,102020.16
2023-02-26T23:38:22.075Z,102024.72
2023-02-26T23:40:49.841Z,102026.47
2023-02-26T23:43:17.968Z,102019.38
2023-02-26T23:45:45.749Z,102022.97
2023-02-26T23:48:15.039Z,102017.59
2023-02-26T23:50:42.831Z,102026.47
2023-02-26T23:53:10.646Z,102028.28
2023-02-26T23:55:38.481Z,102027.31
2023-02-26T23:58:06.245Z,102028.16
